sensor_id;sensor_type;location;lat;lon;timestamp;P1;durP1;ratioP1;P2;durP2;ratioP2
9409;SDS011;4744;52.576;13.568;2024-01-15T00:01:07;9.80;;;6.65;;
9409;SDS011;4744;52.576;13.568;2024-01-15T00:03:35;10.50;;;7.13;;
9409;SDS011;4744;52.576;13.568;2024-01-15T00:06:03;7.32;;;6.43;;
9409;SDS011;4744;52.576;13.568;2024-01-15T00:08:30;7.90;;;6.95;;
9409;SDS011;4744;52.576;13.568;2024-01-15T00:10:57;7.75;;;6.60;;
9409;SDS011;4744;52.576;13.568;2024-01-15T00:13:24;7.95;;;6.88;;
9409;SDS011;4744;52.576;13.568;2024-01-15T00:15:50;7.55;;;6.47;;
9409;SDS011;4744;52.576;13.568;2024-01-15T00:18:17;7.30;;;6.28;;
9409;SDS011;4744;52.576;13.568;2024-01-15T00:20:46;7.65;;;6.28;;
9409;SDS011;4744;52.576;13.568;2024-01-15T00:23:12;7.70;;;6.72;;
9409;SDS011;4744;52.576;13.568;2024-01-15T00:25:40;7.53;;;6.72;;
9409;SDS011;4744;52.576;13.568;2024-01-15T00:28:07;7.95;;;6.43;;
9409;SDS011;4744;52.576;13.568;2024-01-15T00:30:34;7.55;;;6.35;;
9409;SDS011;4744;52.576;13.568;2024-01-15T00:33:01;8.45;;;7.30;;
9409;SDS011;4744;52.576;13.568;2024-01-15T00:35:28;9.68;;;7.07;;
9409;SDS011;4744;52.576;13.568;2024-01-15T00:37:56;7.65;;;6.68;;
9409;SDS011;4744;52.576;13.568;2024-01-15T00:40:23;7.38;;;6.40;;
9409;SDS011;4744;52.576;13.568;2024-01-15T00:42:51;7.65;;;6.75;;
9409;SDS011;4744;52.576;13.568;2024-01-15T00:45:17;7.43;;;6.32;;
9409;SDS011;4744;52.576;13.568;2024-01-15T00:47:44;6.88;;;6.18;;
9409;SDS011;4744;52.576;13.568;2024-01-15T00:50:11;8.63;;;6.45;;
9409;SDS011;4744;52.576;13.568;2024-01-15T00:52:38;8.43;;;6.45;;
9409;SDS011;4744;52.576;13.568;2024-01-15T00:55:07;7.07;;;6.38;;
9409;SDS011;4744;52.576;13.568;2024-01-15T00:57:34;7.10;;;6.35;;
9409;SDS011;4744;52.576;13.568;2024-01-15T01:00:01;8.15;;;6.90;;
9409;SDS011;4744;52.576;13.568;2024-01-15T01:02:28;7.68;;;6.78;;
9409;SDS011;4744;52.576;13.568;2024-01-15T01:04:54;7.78;;;6.97;;
9409;SDS011;4744;52.576;13.568;2024-01-15T01:07:21;8.32;;;6.70;;
9409;SDS011;4744;52.576;13.568;2024-01-15T01:09:48;7.82;;;6.85;;
9409;SDS011;4744;52.576;13.568;2024-01-15T01:12:17;9.10;;;6.78;;
9409;SDS011;4744;52.576;13.568;2024-01-15T01:14:44;8.85;;;7.15;;
9409;SDS011;4744;52.576;13.568;2024-01-15T01:17:11;8.38;;;6.93;;
9409;SDS011;4744;52.576;13.568;2024-01-15T01:19:38;7.38;;;6.28;;
9409;SDS011;4744;52.576;13.568;2024-01-15T01:22:05;7.10;;;6.38;;
9409;SDS011;4744;52.576;13.568;2024-01-15T01:24:32;7.95;;;6.68;;
9409;SDS011;4744;52.576;13.568;2024-01-15T01:26:59;7.43;;;6.43;;
9409;SDS011;4744;52.576;13.568;2024-01-15T01:29:27;8.63;;;7.10;;
9409;SDS011;4744;52.576;13.568;2024-01-15T01:31:54;8.85;;;7.03;;
9409;SDS011;4744;52.576;13.568;2024-01-15T01:34:21;8.77;;;6.97;;
9409;SDS011;4744;52.576;13.568;2024-01-15T01:36:48;8.80;;;7.10;;
9409;SDS011;4744;52.576;13.568;2024-01-15T01:39:15;7.82;;;6.93;;
9409;SDS011;4744;52.576;13.568;2024-01-15T01:41:42;8.32;;;6.55;;
9409;SDS011;4744;52.576;13.568;2024-01-15T01:44:09;9.02;;;7.05;;
9409;SDS011;4744;52.576;13.568;2024-01-15T01:46:37;8.88;;;6.90;;
9409;SDS011;4744;52.576;13.568;2024-01-15T01:49:05;8.48;;;7.22;;
9409;SDS011;4744;52.576;13.568;2024-01-15T01:51:33;8.95;;;6.93;;
9409;SDS011;4744;52.576;13.568;2024-01-15T01:54:02;8.23;;;7.22;;
9409;SDS011;4744;52.576;13.568;2024-01-15T01:56:30;8.15;;;6.65;;
9409;SDS011;4744;52.576;13.568;2024-01-15T01:58:57;8.35;;;7.03;;
9409;SDS011;4744;52.576;13.568;2024-01-15T02:01:24;9.32;;;6.82;;
9409;SDS011;4744;52.576;13.568;2024-01-15T02:03:53;7.93;;;6.28;;
9409;SDS011;4744;52.576;13.568;2024-01-15T02:06:21;7.13;;;6.43;;
9409;SDS011;4744;52.576;13.568;2024-01-15T02:08:49;7.97;;;6.10;;
9409;SDS011;4744;52.576;13.568;2024-01-15T02:11:16;7.05;;;6.00;;
9409;SDS011;4744;52.576;13.568;2024-01-15T02:13:43;7.78;;;5.95;;
9409;SDS011;4744;52.576;13.568;2024-01-15T02:16:10;6.70;;;5.97;;
9409;SDS011;4744;52.576;13.568;2024-01-15T02:18:40;8.23;;;6.13;;
9409;SDS011;4744;52.576;13.568;2024-01-15T02:21:09;8.70;;;6.63;;
9409;SDS011;4744;52.576;13.568;2024-01-15T02:23:38;7.00;;;6.20;;
9409;SDS011;4744;52.576;13.568;2024-01-15T02:26:05;7.70;;;5.95;;
9409;SDS011;4744;52.576;13.568;2024-01-15T02:28:32;7.35;;;5.85;;
9409;SDS011;4744;52.576;13.568;2024-01-15T02:30:59;7.63;;;5.90;;
9409;SDS011;4744;52.576;13.568;2024-01-15T02:33:26;8.00;;;5.82;;
9409;SDS011;4744;52.576;13.568;2024-01-15T02:35:53;9.23;;;6.10;;
9409;SDS011;4744;52.576;13.568;2024-01-15T02:38:20;7.07;;;5.47;;
9409;SDS011;4744;52.576;13.568;2024-01-15T02:40:49;6.38;;;5.43;;
9409;SDS011;4744;52.576;13.568;2024-01-15T02:43:16;7.15;;;5.30;;
9409;SDS011;4744;52.576;13.568;2024-01-15T02:45:44;9.48;;;5.40;;
9409;SDS011;4744;52.576;13.568;2024-01-15T02:48:11;7.72;;;5.45;;
9409;SDS011;4744;52.576;13.568;2024-01-15T02:50:38;5.43;;;4.63;;
9409;SDS011;4744;52.576;13.568;2024-01-15T02:53:05;7.75;;;5.03;;
9409;SDS011;4744;52.576;13.568;2024-01-15T02:55:32;9.40;;;4.95;;
9409;SDS011;4744;52.576;13.568;2024-01-15T02:58:00;6.35;;;4.63;;
9409;SDS011;4744;52.576;13.568;2024-01-15T03:00:27;5.80;;;4.30;;
9409;SDS011;4744;52.576;13.568;2024-01-15T03:02:54;7.05;;;4.88;;
9409;SDS011;4744;52.576;13.568;2024-01-15T03:05:21;5.13;;;4.60;;
9409;SDS011;4744;52.576;13.568;2024-01-15T03:07:48;5.43;;;4.60;;
9409;SDS011;4744;52.576;13.568;2024-01-15T03:10:15;6.70;;;5.03;;
9409;SDS011;4744;52.576;13.568;2024-01-15T03:12:42;6.20;;;4.80;;
9409;SDS011;4744;52.576;13.568;2024-01-15T03:15:11;4.82;;;4.32;;
9409;SDS011;4744;52.576;13.568;2024-01-15T03:17:38;5.50;;;4.60;;
9409;SDS011;4744;52.576;13.568;2024-01-15T03:20:05;5.07;;;4.38;;
9409;SDS011;4744;52.576;13.568;2024-01-15T03:22:32;7.10;;;4.40;;
9409;SDS011;4744;52.576;13.568;2024-01-15T03:24:59;8.18;;;4.32;;
9409;SDS011;4744;52.576;13.568;2024-01-15T03:27:26;5.05;;;3.85;;
9409;SDS011;4744;52.576;13.568;2024-01-15T03:29:53;6.40;;;4.15;;
9409;SDS011;4744;52.576;13.568;2024-01-15T03:32:21;5.20;;;4.03;;
9409;SDS011;4744;52.576;13.568;2024-01-15T03:34:48;6.00;;;3.90;;
9409;SDS011;4744;52.576;13.568;2024-01-15T03:37:17;6.15;;;3.75;;
9409;SDS011;4744;52.576;13.568;2024-01-15T03:39:44;5.53;;;4.18;;
9409;SDS011;4744;52.576;13.568;2024-01-15T03:42:11;5.95;;;4.20;;
9409;SDS011;4744;52.576;13.568;2024-01-15T03:44:39;6.07;;;4.35;;
9409;SDS011;4744;52.576;13.568;2024-01-15T03:47:06;7.75;;;4.28;;
9409;SDS011;4744;52.576;13.568;2024-01-15T03:49:34;4.60;;;3.78;;
9409;SDS011;4744;52.576;13.568;2024-01-15T03:52:01;5.07;;;4.03;;
9409;SDS011;4744;52.576;13.568;2024-01-15T03:54:28;5.18;;;3.65;;
9409;SDS011;4744;52.576;13.568;2024-01-15T03:56:55;4.95;;;3.88;;
9409;SDS011;4744;52.576;13.568;2024-01-15T03:59:22;5.15;;;3.70;;
9409;SDS011;4744;52.576;13.568;2024-01-15T04:01:49;7.18;;;4.45;;
9409;SDS011;4744;52.576;13.568;2024-01-15T04:04:16;6.00;;;4.05;;
9409;SDS011;4744;52.576;13.568;2024-01-15T04:06:44;6.03;;;3.80;;
9409;SDS011;4744;52.576;13.568;2024-01-15T04:09:12;4.45;;;3.63;;
9409;SDS011;4744;52.576;13.568;2024-01-15T04:11:39;7.05;;;3.80;;
9409;SDS011;4744;52.576;13.568;2024-01-15T04:14:06;8.57;;;3.92;;
9409;SDS011;4744;52.576;13.568;2024-01-15T04:16:33;4.25;;;3.28;;
9409;SDS011;4744;52.576;13.568;2024-01-15T04:19:00;5.50;;;3.78;;
9409;SDS011;4744;52.576;13.568;2024-01-15T04:21:26;6.03;;;3.92;;
9409;SDS011;4744;52.576;13.568;2024-01-15T04:23:55;7.25;;;3.72;;
9409;SDS011;4744;52.576;13.568;2024-01-15T04:26:21;4.50;;;3.67;;
9409;SDS011;4744;52.576;13.568;2024-01-15T04:28:48;6.13;;;4.43;;
9409;SDS011;4744;52.576;13.568;2024-01-15T04:31:22;7.10;;;3.97;;
9409;SDS011;4744;52.576;13.568;2024-01-15T04:33:49;6.10;;;3.72;;
9409;SDS011;4744;52.576;13.568;2024-01-15T04:36:16;4.80;;;3.50;;
9409;SDS011;4744;52.576;13.568;2024-01-15T04:38:43;5.80;;;3.63;;
9409;SDS011;4744;52.576;13.568;2024-01-15T04:41:12;5.85;;;3.45;;
9409;SDS011;4744;52.576;13.568;2024-01-15T04:43:39;4.80;;;3.40;;
9409;SDS011;4744;52.576;13.568;2024-01-15T04:46:06;6.30;;;3.33;;
9409;SDS011;4744;52.576;13.568;2024-01-15T04:48:33;5.70;;;3.53;;
9409;SDS011;4744;52.576;13.568;2024-01-15T04:51:00;8.98;;;3.30;;
9409;SDS011;4744;52.576;13.568;2024-01-15T04:53:29;4.75;;;3.13;;
9409;SDS011;4744;52.576;13.568;2024-01-15T04:55:56;5.40;;;3.17;;
9409;SDS011;4744;52.576;13.568;2024-01-15T04:58:24;6.97;;;3.10;;
9409;SDS011;4744;52.576;13.568;2024-01-15T05:00:52;4.85;;;3.25;;
9409;SDS011;4744;52.576;13.568;2024-01-15T05:03:19;6.43;;;3.17;;
9409;SDS011;4744;52.576;13.568;2024-01-15T05:05:46;6.18;;;3.03;;
9409;SDS011;4744;52.576;13.568;2024-01-15T05:08:13;5.30;;;3.10;;
9409;SDS011;4744;52.576;13.568;2024-01-15T05:10:40;4.97;;;2.65;;
9409;SDS011;4744;52.576;13.568;2024-01-15T05:13:06;6.10;;;2.63;;
9409;SDS011;4744;52.576;13.568;2024-01-15T05:15:35;4.40;;;3.00;;
9409;SDS011;4744;52.576;13.568;2024-01-15T05:18:02;2.97;;;2.58;;
9409;SDS011;4744;52.576;13.568;2024-01-15T05:20:29;5.05;;;3.08;;
9409;SDS011;4744;52.576;13.568;2024-01-15T05:22:56;5.00;;;2.80;;
9409;SDS011;4744;52.576;13.568;2024-01-15T05:25:23;6.43;;;2.70;;
9409;SDS011;4744;52.576;13.568;2024-01-15T05:27:50;4.03;;;2.50;;
9409;SDS011;4744;52.576;13.568;2024-01-15T05:30:16;2.63;;;2.13;;
9409;SDS011;4744;52.576;13.568;2024-01-15T05:32:45;4.63;;;2.47;;
9409;SDS011;4744;52.576;13.568;2024-01-15T05:35:12;2.15;;;1.92;;
9409;SDS011;4744;52.576;13.568;2024-01-15T05:37:41;3.53;;;2.20;;
9409;SDS011;4744;52.576;13.568;2024-01-15T05:40:10;3.88;;;2.30;;
9409;SDS011;4744;52.576;13.568;2024-01-15T05:42:37;4.22;;;2.30;;
9409;SDS011;4744;52.576;13.568;2024-01-15T05:45:04;4.50;;;2.38;;
9409;SDS011;4744;52.576;13.568;2024-01-15T05:47:32;4.20;;;2.05;;
9409;SDS011;4744;52.576;13.568;2024-01-15T05:50:01;5.13;;;2.08;;
9409;SDS011;4744;52.576;13.568;2024-01-15T05:52:28;6.00;;;2.25;;
9409;SDS011;4744;52.576;13.568;2024-01-15T05:54:55;5.70;;;2.17;;
9409;SDS011;4744;52.576;13.568;2024-01-15T05:57:22;4.25;;;2.33;;
9409;SDS011;4744;52.576;13.568;2024-01-15T05:59:49;3.28;;;2.00;;
9409;SDS011;4744;52.576;13.568;2024-01-15T06:02:16;3.95;;;1.77;;
9409;SDS011;4744;52.576;13.568;2024-01-15T06:04:43;7.35;;;1.88;;
9409;SDS011;4744;52.576;13.568;2024-01-15T06:07:11;5.63;;;2.08;;
9409;SDS011;4744;52.576;13.568;2024-01-15T06:09:38;4.82;;;1.80;;
9409;SDS011;4744;52.576;13.568;2024-01-15T06:12:06;4.45;;;1.70;;
9409;SDS011;4744;52.576;13.568;2024-01-15T06:14:34;3.67;;;1.85;;
9409;SDS011;4744;52.576;13.568;2024-01-15T06:17:01;4.57;;;2.00;;
9409;SDS011;4744;52.576;13.568;2024-01-15T06:19:27;2.70;;;1.70;;
9409;SDS011;4744;52.576;13.568;2024-01-15T06:21:54;4.82;;;1.90;;
9409;SDS011;4744;52.576;13.568;2024-01-15T06:24:23;5.25;;;1.58;;
9409;SDS011;4744;52.576;13.568;2024-01-15T06:26:49;6.40;;;2.00;;
9409;SDS011;4744;52.576;13.568;2024-01-15T06:29:16;7.32;;;1.98;;
9409;SDS011;4744;52.576;13.568;2024-01-15T06:31:43;5.47;;;1.95;;
9409;SDS011;4744;52.576;13.568;2024-01-15T06:34:10;3.88;;;1.65;;
9409;SDS011;4744;52.576;13.568;2024-01-15T06:36:37;2.92;;;1.52;;
9409;SDS011;4744;52.576;13.568;2024-01-15T06:39:04;4.07;;;1.95;;
9409;SDS011;4744;52.576;13.568;2024-01-15T06:41:32;3.83;;;1.70;;
9409;SDS011;4744;52.576;13.568;2024-01-15T06:43:59;3.28;;;1.52;;
9409;SDS011;4744;52.576;13.568;2024-01-15T06:46:26;3.65;;;1.63;;
9409;SDS011;4744;52.576;13.568;2024-01-15T06:48:53;3.13;;;1.70;;
9409;SDS011;4744;52.576;13.568;2024-01-15T06:51:20;3.25;;;1.40;;
9409;SDS011;4744;52.576;13.568;2024-01-15T06:53:46;3.30;;;1.73;;
9409;SDS011;4744;52.576;13.568;2024-01-15T06:56:13;2.72;;;1.98;;
9409;SDS011;4744;52.576;13.568;2024-01-15T06:58:41;5.47;;;2.03;;
9409;SDS011;4744;52.576;13.568;2024-01-15T07:01:08;4.57;;;1.90;;
9409;SDS011;4744;52.576;13.568;2024-01-15T07:03:35;3.55;;;1.60;;
9409;SDS011;4744;52.576;13.568;2024-01-15T07:06:02;4.18;;;1.88;;
9409;SDS011;4744;52.576;13.568;2024-01-15T07:08:30;2.45;;;1.52;;
9409;SDS011;4744;52.576;13.568;2024-01-15T07:10:56;3.13;;;1.15;;
9409;SDS011;4744;52.576;13.568;2024-01-15T07:13:23;6.13;;;1.65;;
9409;SDS011;4744;52.576;13.568;2024-01-15T07:15:51;4.43;;;1.63;;
9409;SDS011;4744;52.576;13.568;2024-01-15T07:18:18;5.85;;;1.75;;
9409;SDS011;4744;52.576;13.568;2024-01-15T07:20:45;3.35;;;1.60;;
9409;SDS011;4744;52.576;13.568;2024-01-15T07:23:12;5.68;;;1.98;;
9409;SDS011;4744;52.576;13.568;2024-01-15T07:25:39;5.88;;;1.60;;
9409;SDS011;4744;52.576;13.568;2024-01-15T07:28:06;3.75;;;1.80;;
9409;SDS011;4744;52.576;13.568;2024-01-15T07:30:33;5.28;;;1.67;;
9409;SDS011;4744;52.576;13.568;2024-01-15T07:33:01;4.53;;;1.63;;
9409;SDS011;4744;52.576;13.568;2024-01-15T07:35:29;4.20;;;1.63;;
9409;SDS011;4744;52.576;13.568;2024-01-15T07:37:56;7.07;;;1.80;;
9409;SDS011;4744;52.576;13.568;2024-01-15T07:40:23;2.88;;;1.38;;
9409;SDS011;4744;52.576;13.568;2024-01-15T07:42:50;7.93;;;1.70;;
9409;SDS011;4744;52.576;13.568;2024-01-15T07:45:17;6.85;;;2.03;;
9409;SDS011;4744;52.576;13.568;2024-01-15T07:47:44;5.38;;;1.80;;
9409;SDS011;4744;52.576;13.568;2024-01-15T07:50:13;4.25;;;1.77;;
9409;SDS011;4744;52.576;13.568;2024-01-15T07:52:40;6.95;;;1.52;;
9409;SDS011;4744;52.576;13.568;2024-01-15T07:55:08;7.13;;;1.77;;
9409;SDS011;4744;52.576;13.568;2024-01-15T07:57:35;4.38;;;1.60;;
9409;SDS011;4744;52.576;13.568;2024-01-15T08:00:03;3.60;;;1.70;;
9409;SDS011;4744;52.576;13.568;2024-01-15T08:02:31;8.52;;;1.90;;
9409;SDS011;4744;52.576;13.568;2024-01-15T08:04:58;4.15;;;1.70;;
9409;SDS011;4744;52.576;13.568;2024-01-15T08:07:27;8.95;;;1.75;;
9409;SDS011;4744;52.576;13.568;2024-01-15T08:09:54;6.32;;;2.30;;
9409;SDS011;4744;52.576;13.568;2024-01-15T08:12:21;5.07;;;2.35;;
9409;SDS011;4744;52.576;13.568;2024-01-15T08:14:48;6.32;;;2.00;;
9409;SDS011;4744;52.576;13.568;2024-01-15T08:17:15;8.13;;;2.03;;
9409;SDS011;4744;52.576;13.568;2024-01-15T08:19:42;4.25;;;1.98;;
9409;SDS011;4744;52.576;13.568;2024-01-15T08:22:08;3.67;;;1.60;;
9409;SDS011;4744;52.576;13.568;2024-01-15T08:24:37;7.97;;;1.80;;
9409;SDS011;4744;52.576;13.568;2024-01-15T08:27:04;7.07;;;1.77;;
9409;SDS011;4744;52.576;13.568;2024-01-15T08:29:31;7.70;;;1.60;;
9409;SDS011;4744;52.576;13.568;2024-01-15T08:32:00;5.25;;;1.63;;
9409;SDS011;4744;52.576;13.568;2024-01-15T08:34:26;5.78;;;2.00;;
9409;SDS011;4744;52.576;13.568;2024-01-15T08:36:53;5.50;;;2.38;;
9409;SDS011;4744;52.576;13.568;2024-01-15T08:39:20;4.13;;;1.60;;
9409;SDS011;4744;52.576;13.568;2024-01-15T08:41:49;7.50;;;2.05;;
9409;SDS011;4744;52.576;13.568;2024-01-15T08:44:15;2.78;;;1.50;;
9409;SDS011;4744;52.576;13.568;2024-01-15T08:46:43;3.67;;;1.35;;
9409;SDS011;4744;52.576;13.568;2024-01-15T08:49:10;5.85;;;1.77;;
9409;SDS011;4744;52.576;13.568;2024-01-15T08:51:37;6.57;;;1.85;;
9409;SDS011;4744;52.576;13.568;2024-01-15T08:54:04;4.45;;;1.40;;
9409;SDS011;4744;52.576;13.568;2024-01-15T08:56:33;2.67;;;1.38;;
9409;SDS011;4744;52.576;13.568;2024-01-15T08:59:01;6.05;;;1.52;;
9409;SDS011;4744;52.576;13.568;2024-01-15T09:01:28;5.10;;;1.95;;
9409;SDS011;4744;52.576;13.568;2024-01-15T09:03:56;4.10;;;1.80;;
9409;SDS011;4744;52.576;13.568;2024-01-15T09:06:23;3.95;;;1.50;;
9409;SDS011;4744;52.576;13.568;2024-01-15T09:08:49;4.90;;;1.52;;
9409;SDS011;4744;52.576;13.568;2024-01-15T09:11:16;4.07;;;1.77;;
9409;SDS011;4744;52.576;13.568;2024-01-15T09:13:43;5.82;;;1.67;;
9409;SDS011;4744;52.576;13.568;2024-01-15T09:16:11;5.82;;;1.50;;
9409;SDS011;4744;52.576;13.568;2024-01-15T09:18:38;5.32;;;1.33;;
9409;SDS011;4744;52.576;13.568;2024-01-15T09:21:05;3.58;;;1.65;;
9409;SDS011;4744;52.576;13.568;2024-01-15T09:23:32;6.88;;;1.50;;
9409;SDS011;4744;52.576;13.568;2024-01-15T09:25:59;6.45;;;1.92;;
9409;SDS011;4744;52.576;13.568;2024-01-15T09:28:26;4.65;;;1.70;;
9409;SDS011;4744;52.576;13.568;2024-01-15T09:30:53;7.10;;;1.80;;
9409;SDS011;4744;52.576;13.568;2024-01-15T09:33:21;5.95;;;1.73;;
9409;SDS011;4744;52.576;13.568;2024-01-15T09:35:48;5.32;;;1.88;;
9409;SDS011;4744;52.576;13.568;2024-01-15T09:38:14;6.10;;;1.90;;
9409;SDS011;4744;52.576;13.568;2024-01-15T09:40:43;6.32;;;1.90;;
9409;SDS011;4744;52.576;13.568;2024-01-15T09:43:12;2.63;;;1.50;;
9409;SDS011;4744;52.576;13.568;2024-01-15T09:45:40;3.60;;;1.50;;
9409;SDS011;4744;52.576;13.568;2024-01-15T09:48:08;5.10;;;1.55;;
9409;SDS011;4744;52.576;13.568;2024-01-15T09:50:37;4.22;;;1.60;;
9409;SDS011;4744;52.576;13.568;2024-01-15T09:53:03;4.20;;;1.80;;
9409;SDS011;4744;52.576;13.568;2024-01-15T09:55:31;4.05;;;1.65;;
9409;SDS011;4744;52.576;13.568;2024-01-15T09:57:59;4.43;;;1.77;;
9409;SDS011;4744;52.576;13.568;2024-01-15T10:00:27;4.97;;;2.00;;
9409;SDS011;4744;52.576;13.568;2024-01-15T10:02:55;3.90;;;1.33;;
9409;SDS011;4744;52.576;13.568;2024-01-15T10:05:22;3.08;;;1.48;;
9409;SDS011;4744;52.576;13.568;2024-01-15T10:07:51;5.97;;;1.90;;
9409;SDS011;4744;52.576;13.568;2024-01-15T10:10:19;7.18;;;1.60;;
9409;SDS011;4744;52.576;13.568;2024-01-15T10:12:46;6.18;;;1.73;;
9409;SDS011;4744;52.576;13.568;2024-01-15T10:15:13;3.38;;;1.80;;
9409;SDS011;4744;52.576;13.568;2024-01-15T10:17:42;2.42;;;1.40;;
9409;SDS011;4744;52.576;13.568;2024-01-15T10:20:09;4.90;;;1.70;;
9409;SDS011;4744;52.576;13.568;2024-01-15T10:22:41;3.00;;;1.20;;
9409;SDS011;4744;52.576;13.568;2024-01-15T10:25:11;3.15;;;1.23;;
9409;SDS011;4744;52.576;13.568;2024-01-15T10:27:39;5.35;;;1.77;;
9409;SDS011;4744;52.576;13.568;2024-01-15T10:30:06;3.67;;;1.48;;
9409;SDS011;4744;52.576;13.568;2024-01-15T10:32:34;2.60;;;1.48;;
9409;SDS011;4744;52.576;13.568;2024-01-15T10:35:01;2.90;;;1.30;;
9409;SDS011;4744;52.576;13.568;2024-01-15T10:37:29;2.00;;;1.27;;
9409;SDS011;4744;52.576;13.568;2024-01-15T10:40:00;2.95;;;1.35;;
9409;SDS011;4744;52.576;13.568;2024-01-15T10:42:30;3.65;;;1.30;;
9409;SDS011;4744;52.576;13.568;2024-01-15T10:44:57;3.55;;;1.52;;
9409;SDS011;4744;52.576;13.568;2024-01-15T10:47:23;2.90;;;1.40;;
9409;SDS011;4744;52.576;13.568;2024-01-15T10:49:50;1.80;;;1.13;;
9409;SDS011;4744;52.576;13.568;2024-01-15T10:52:18;2.97;;;1.23;;
9409;SDS011;4744;52.576;13.568;2024-01-15T10:54:45;3.63;;;1.52;;
9409;SDS011;4744;52.576;13.568;2024-01-15T10:57:13;4.32;;;1.35;;
9409;SDS011;4744;52.576;13.568;2024-01-15T10:59:43;2.05;;;1.25;;
9409;SDS011;4744;52.576;13.568;2024-01-15T11:02:13;1.63;;;1.10;;
9409;SDS011;4744;52.576;13.568;2024-01-15T11:04:41;3.08;;;1.10;;
9409;SDS011;4744;52.576;13.568;2024-01-15T11:07:08;3.83;;;1.40;;
9409;SDS011;4744;52.576;13.568;2024-01-15T11:09:37;1.95;;;1.00;;
9409;SDS011;4744;52.576;13.568;2024-01-15T11:12:07;2.28;;;1.30;;
9409;SDS011;4744;52.576;13.568;2024-01-15T11:14:38;5.30;;;1.40;;
9409;SDS011;4744;52.576;13.568;2024-01-15T11:17:09;2.35;;;1.23;;
9409;SDS011;4744;52.576;13.568;2024-01-15T11:19:36;1.30;;;1.13;;
9409;SDS011;4744;52.576;13.568;2024-01-15T11:22:05;5.28;;;1.15;;
9409;SDS011;4744;52.576;13.568;2024-01-15T11:24:35;1.25;;;0.98;;
9409;SDS011;4744;52.576;13.568;2024-01-15T11:27:05;1.17;;;0.77;;
9409;SDS011;4744;52.576;13.568;2024-01-15T11:29:34;2.47;;;1.05;;
9409;SDS011;4744;52.576;13.568;2024-01-15T11:32:05;2.47;;;0.80;;
9409;SDS011;4744;52.576;13.568;2024-01-15T11:34:52;1.73;;;0.93;;
9409;SDS011;4744;52.576;13.568;2024-01-15T11:37:23;1.70;;;1.05;;
9409;SDS011;4744;52.576;13.568;2024-01-15T11:39:54;2.83;;;0.85;;
9409;SDS011;4744;52.576;13.568;2024-01-15T11:42:22;1.23;;;1.00;;
9409;SDS011;4744;52.576;13.568;2024-01-15T11:44:49;1.45;;;0.70;;
9409;SDS011;4744;52.576;13.568;2024-01-15T11:47:17;1.65;;;0.73;;
9409;SDS011;4744;52.576;13.568;2024-01-15T11:50:01;1.27;;;0.70;;
9409;SDS011;4744;52.576;13.568;2024-01-15T11:52:32;2.53;;;0.95;;
9409;SDS011;4744;52.576;13.568;2024-01-15T11:55:01;0.90;;;0.85;;
9409;SDS011;4744;52.576;13.568;2024-01-15T11:57:37;2.15;;;0.90;;
9409;SDS011;4744;52.576;13.568;2024-01-15T12:00:08;0.82;;;0.77;;
9409;SDS011;4744;52.576;13.568;2024-01-15T12:02:37;1.30;;;1.20;;
9409;SDS011;4744;52.576;13.568;2024-01-15T12:05:06;1.90;;;1.58;;
9409;SDS011;4744;52.576;13.568;2024-01-15T12:07:33;1.58;;;0.90;;
9409;SDS011;4744;52.576;13.568;2024-01-15T12:10:01;1.23;;;1.20;;
9409;SDS011;4744;52.576;13.568;2024-01-15T12:12:34;1.27;;;0.98;;
9409;SDS011;4744;52.576;13.568;2024-01-15T12:15:19;1.38;;;1.27;;
9409;SDS011;4744;52.576;13.568;2024-01-15T12:17:46;2.05;;;1.25;;
9409;SDS011;4744;52.576;13.568;2024-01-15T12:20:14;1.45;;;0.90;;
9409;SDS011;4744;52.576;13.568;2024-01-15T12:22:41;1.00;;;0.95;;
9409;SDS011;4744;52.576;13.568;2024-01-15T12:25:09;1.05;;;1.05;;
9409;SDS011;4744;52.576;13.568;2024-01-15T12:27:36;1.85;;;0.88;;
9409;SDS011;4744;52.576;13.568;2024-01-15T12:30:04;2.05;;;1.23;;
9409;SDS011;4744;52.576;13.568;2024-01-15T12:32:32;1.13;;;1.05;;
9409;SDS011;4744;52.576;13.568;2024-01-15T12:35:00;3.17;;;1.20;;
9409;SDS011;4744;52.576;13.568;2024-01-15T12:37:28;1.10;;;1.00;;
9409;SDS011;4744;52.576;13.568;2024-01-15T12:39:55;1.00;;;0.90;;
9409;SDS011;4744;52.576;13.568;2024-01-15T12:42:24;0.82;;;0.82;;
9409;SDS011;4744;52.576;13.568;2024-01-15T12:44:51;1.35;;;1.15;;
9409;SDS011;4744;52.576;13.568;2024-01-15T12:47:21;0.90;;;0.90;;
9409;SDS011;4744;52.576;13.568;2024-01-15T12:49:48;2.13;;;1.10;;
9409;SDS011;4744;52.576;13.568;2024-01-15T12:52:19;1.52;;;1.10;;
9409;SDS011;4744;52.576;13.568;2024-01-15T12:54:48;1.55;;;0.82;;
9409;SDS011;4744;52.576;13.568;2024-01-15T12:57:16;1.25;;;0.90;;
9409;SDS011;4744;52.576;13.568;2024-01-15T12:59:43;2.70;;;1.10;;
9409;SDS011;4744;52.576;13.568;2024-01-15T13:02:10;1.33;;;0.80;;
9409;SDS011;4744;52.576;13.568;2024-01-15T13:04:37;0.90;;;0.90;;
9409;SDS011;4744;52.576;13.568;2024-01-15T13:07:04;1.08;;;0.70;;
9409;SDS011;4744;52.576;13.568;2024-01-15T13:09:31;0.77;;;0.77;;
9409;SDS011;4744;52.576;13.568;2024-01-15T13:12:00;1.05;;;0.95;;
9409;SDS011;4744;52.576;13.568;2024-01-15T13:14:27;1.15;;;0.90;;
9409;SDS011;4744;52.576;13.568;2024-01-15T13:16:54;0.73;;;0.73;;
9409;SDS011;4744;52.576;13.568;2024-01-15T13:19:22;1.65;;;0.95;;
9409;SDS011;4744;52.576;13.568;2024-01-15T13:21:49;0.80;;;0.80;;
9409;SDS011;4744;52.576;13.568;2024-01-15T13:24:16;0.77;;;0.77;;
9409;SDS011;4744;52.576;13.568;2024-01-15T13:26:43;0.82;;;0.82;;
9409;SDS011;4744;52.576;13.568;2024-01-15T13:29:11;0.60;;;0.60;;
9409;SDS011;4744;52.576;13.568;2024-01-15T13:31:39;0.95;;;0.85;;
9409;SDS011;4744;52.576;13.568;2024-01-15T13:34:06;0.73;;;0.68;;
9409;SDS011;4744;52.576;13.568;2024-01-15T13:36:34;1.02;;;0.93;;
9409;SDS011;4744;52.576;13.568;2024-01-15T13:39:03;0.95;;;0.95;;
9409;SDS011;4744;52.576;13.568;2024-01-15T13:41:33;1.85;;;0.80;;
9409;SDS011;4744;52.576;13.568;2024-01-15T13:44:00;0.88;;;0.82;;
9409;SDS011;4744;52.576;13.568;2024-01-15T13:46:29;1.13;;;0.82;;
9409;SDS011;4744;52.576;13.568;2024-01-15T13:48:56;0.93;;;0.85;;
9409;SDS011;4744;52.576;13.568;2024-01-15T13:51:22;1.30;;;1.00;;
9409;SDS011;4744;52.576;13.568;2024-01-15T13:53:50;1.25;;;1.00;;
9409;SDS011;4744;52.576;13.568;2024-01-15T13:56:18;1.23;;;0.82;;
9409;SDS011;4744;52.576;13.568;2024-01-15T13:58:45;1.83;;;0.85;;
9409;SDS011;4744;52.576;13.568;2024-01-15T14:01:13;1.25;;;0.98;;
9409;SDS011;4744;52.576;13.568;2024-01-15T14:03:41;2.00;;;1.00;;
9409;SDS011;4744;52.576;13.568;2024-01-15T14:06:08;1.33;;;0.90;;
9409;SDS011;4744;52.576;13.568;2024-01-15T14:08:35;1.48;;;0.88;;
9409;SDS011;4744;52.576;13.568;2024-01-15T14:11:03;2.17;;;1.08;;
9409;SDS011;4744;52.576;13.568;2024-01-15T14:13:31;1.15;;;0.90;;
9409;SDS011;4744;52.576;13.568;2024-01-15T14:15:58;0.85;;;0.85;;
9409;SDS011;4744;52.576;13.568;2024-01-15T14:18:25;2.83;;;1.10;;
9409;SDS011;4744;52.576;13.568;2024-01-15T14:20:53;1.08;;;0.98;;
9409;SDS011;4744;52.576;13.568;2024-01-15T14:23:20;1.13;;;1.02;;
9409;SDS011;4744;52.576;13.568;2024-01-15T14:25:47;1.38;;;1.00;;
9409;SDS011;4744;52.576;13.568;2024-01-15T14:28:14;1.75;;;0.90;;
9409;SDS011;4744;52.576;13.568;2024-01-15T14:30:41;2.40;;;1.10;;
9409;SDS011;4744;52.576;13.568;2024-01-15T14:33:08;0.82;;;0.80;;
9409;SDS011;4744;52.576;13.568;2024-01-15T14:35:35;1.85;;;1.20;;
9409;SDS011;4744;52.576;13.568;2024-01-15T14:38:04;5.32;;;1.38;;
9409;SDS011;4744;52.576;13.568;2024-01-15T14:40:30;0.85;;;0.85;;
9409;SDS011;4744;52.576;13.568;2024-01-15T14:42:57;1.48;;;0.90;;
9409;SDS011;4744;52.576;13.568;2024-01-15T14:45:24;1.20;;;1.00;;
9409;SDS011;4744;52.576;13.568;2024-01-15T14:47:52;1.58;;;1.10;;
9409;SDS011;4744;52.576;13.568;2024-01-15T14:50:19;2.10;;;1.08;;
9409;SDS011;4744;52.576;13.568;2024-01-15T14:52:46;2.10;;;1.00;;
9409;SDS011;4744;52.576;13.568;2024-01-15T14:55:14;3.47;;;1.15;;
9409;SDS011;4744;52.576;13.568;2024-01-15T14:57:41;1.58;;;0.98;;
9409;SDS011;4744;52.576;13.568;2024-01-15T15:00:08;2.00;;;1.52;;
9409;SDS011;4744;52.576;13.568;2024-01-15T15:02:38;2.55;;;1.38;;